Toluca, Illinois
Current Conditions -  °F | °C
As of 12:55 PM on Monday 20 Oct 2014 (Local Time) from KC75 Reporting Station
Clear Clear  
Wind Chill: 64°   Ceiling: Unl
Heat Index: 64°   Visibility: 10mi
Dew Point: 45°   Wind: 14mph
Humidity: 51%   Direction: 310°NW
Pressure: 29.9"   Gusts: 18mph
Location:  41°N, 89.13°W
Report Text: KC75 201755Z AUTO 31012G16KT 10SM CLR 18/07 A2990 RMK AO2 6//// T01770074
Loading
Personal Weather Stations






























Interactive Weather Map
Tropical Storm Tracking
New forecast layout! Learn more

10-Day Weather Forecast

Advertisements
Track Severe Weather on mobile